Time;durP1;ratioP1;P1;durP2;ratioP2;P2;SDS_P1;SDS_P2;PMS_P1;PMS_P2;Temp;Humidity;BMP_temperature;BMP_pressure;BME280_temperature;BME280_humidity;BME280_pressure;Samples;Min_cycle;Max_cycle;Signal;HPM_P1;HPM_P2
2022/01/24 00:02:27;;;;;;;3.03;2.73;;;6.80;99.90;;;;;;5003949;28;20217;-74
2022/01/24 00:04:54;;;;;;;3.07;2.43;;;6.60;99.90;;;;;;5007323;28;20219;-75
2022/01/24 00:07:24;;;;;;;2.77;2.53;;;6.80;99.90;;;;;;5007788;28;20222;-75
2022/01/24 00:09:55;;;;;;;2.47;2.20;;;6.90;99.90;;;;;;5006912;28;20211;-76
2022/01/24 00:12:29;;;;;;;2.90;2.50;;;6.80;99.90;;;;;;5007631;28;20819;-75
2022/01/24 00:15:09;;;;;;;2.90;2.57;;;6.80;99.90;;;;;;5009486;28;20202;-75
2022/01/24 00:17:39;;;;;;;3.07;2.70;;;6.90;99.90;;;;;;5008274;28;20223;-75
2022/01/24 00:28:23;;;;;;;3.87;2.73;;;6.80;99.90;;;;;;5004970;28;20578;-76
2022/01/24 00:30:53;;;;;;;3.07;2.60;;;6.80;99.90;;;;;;5008812;28;20219;-75
2022/01/24 00:33:20;;;;;;;3.80;2.70;;;6.60;99.90;;;;;;5010511;28;20212;-75
2022/01/24 00:35:50;;;;;;;2.97;2.67;;;6.50;99.90;;;;;;5005638;28;20200;-75
2022/01/24 00:38:17;;;;;;;2.73;2.53;;;6.50;99.90;;;;;;5007840;28;20218;-75
2022/01/24 00:40:47;;;;;;;2.87;2.57;;;6.70;99.90;;;;;;5011579;28;20645;-75
2022/01/24 00:43:24;;;;;;;2.70;2.50;;;6.70;99.90;;;;;;5007514;28;20215;-75
2022/01/24 00:45:59;;;;;;;3.60;3.23;;;6.60;99.90;;;;;;5009105;28;20202;-75
2022/01/24 00:48:37;;;;;;;2.87;2.50;;;6.70;99.90;;;;;;5008817;28;20217;-75
2022/01/24 00:54:42;;;;;;;3.63;2.50;;;6.50;99.90;;;;;;5004982;28;20191;-75
2022/01/24 00:56:49;;;;;;;2.90;2.57;;;6.70;99.90;;;;;;5005557;28;20556;-75
2022/01/24 00:59:17;;;;;;;2.53;2.33;;;6.70;99.90;;;;;;5008698;28;20199;-75
2022/01/24 01:01:45;;;;;;;3.30;2.40;;;6.80;99.90;;;;;;5008570;28;20196;-75
2022/01/24 01:04:14;;;;;;;3.03;2.53;;;6.70;99.90;;;;;;5025527;28;20585;-75
2022/01/24 01:06:43;;;;;;;2.37;2.10;;;6.60;99.90;;;;;;5009516;28;20199;-75
2022/01/24 01:20:14;;;;;;;2.50;2.30;;;6.70;99.90;;;;;;5008934;28;20207;-75
2022/01/24 01:22:42;;;;;;;2.70;2.50;;;6.80;99.90;;;;;;5009956;28;20207;-75
2022/01/24 01:25:10;;;;;;;3.83;2.70;;;6.90;99.90;;;;;;5008751;28;20277;-75
2022/01/24 01:27:42;;;;;;;2.70;2.50;;;6.90;99.90;;;;;;5013080;28;20245;-75
2022/01/24 01:30:16;;;;;;;2.97;2.67;;;6.90;99.90;;;;;;5009942;28;20222;-75
2022/01/24 01:32:56;;;;;;;3.73;2.10;;;6.90;99.90;;;;;;5003834;28;20527;-75
2022/01/24 01:35:45;;;;;;;2.53;2.33;;;6.80;99.90;;;;;;5011305;28;20203;-75
2022/01/24 01:55:14;;;;;;;3.00;2.70;;;6.70;99.90;;;;;;5003505;28;20705;-75
2022/01/24 01:57:41;;;;;;;3.33;2.70;;;6.60;99.90;;;;;;5013125;28;20274;-75
2022/01/24 02:00:10;;;;;;;3.83;2.63;;;6.50;99.90;;;;;;5011342;28;20200;-75
2022/01/24 02:02:37;;;;;;;3.97;3.27;;;6.70;99.90;;;;;;5008817;28;20204;-75
2022/01/24 02:05:31;;;;;;;3.73;2.97;;;6.70;99.90;;;;;;5025527;28;20215;-75
2022/01/24 02:07:59;;;;;;;3.10;2.80;;;6.70;99.90;;;;;;5005736;28;20231;-76
2022/01/24 02:10:26;;;;;;;3.20;2.70;;;6.60;99.90;;;;;;5008981;28;20223;-75
2022/01/24 02:12:56;;;;;;;3.40;3.10;;;6.60;99.90;;;;;;5025882;28;20207;-75
2022/01/24 02:15:29;;;;;;;3.57;3.27;;;6.60;99.90;;;;;;5027365;28;20211;-76
2022/01/24 02:18:28;;;;;;;3.00;2.70;;;6.50;99.90;;;;;;5004268;28;20227;-75
2022/01/24 02:21:13;;;;;;;4.20;3.30;;;6.70;99.90;;;;;;5009479;28;20561;-75
2022/01/24 02:23:45;;;;;;;4.80;3.07;;;6.70;99.90;;;;;;5010486;28;20230;-75
2022/01/24 02:26:17;;;;;;;3.73;3.33;;;6.80;99.90;;;;;;5023500;28;20215;-75
2022/01/24 02:28:54;;;;;;;4.07;3.60;;;6.80;99.90;;;;;;5013581;28;20219;-75
2022/01/24 02:31:44;;;;;;;4.03;3.33;;;6.80;99.90;;;;;;5012171;28;20208;-76
2022/01/24 02:34:27;;;;;;;3.70;3.10;;;6.80;99.90;;;;;;5012219;28;20658;-76
2022/01/24 02:36:57;;;;;;;3.10;2.77;;;6.80;99.90;;;;;;5012003;28;20209;-75
2022/01/24 02:39:45;;;;;;;3.70;3.03;;;6.70;99.90;;;;;;5012164;28;20200;-76
2022/01/24 02:50:50;;;;;;;4.23;3.07;;;7.00;99.90;;;;;;5005759;28;20209;-75
2022/01/24 02:53:17;;;;;;;3.60;2.93;;;7.00;99.90;;;;;;5016069;28;20200;-75
2022/01/24 02:55:46;;;;;;;2.97;2.50;;;6.90;99.90;;;;;;5007639;28;20218;-75
2022/01/24 02:58:15;;;;;;;2.40;1.93;;;6.60;99.90;;;;;;5008248;28;20588;-75
2022/01/24 03:00:43;;;;;;;2.37;2.10;;;6.60;99.90;;;;;;5008999;28;20187;-76
2022/01/24 03:03:11;;;;;;;2.13;1.93;;;6.70;99.90;;;;;;5009876;28;20207;-75
2022/01/24 03:05:39;;;;;;;2.77;2.40;;;6.70;99.90;;;;;;5008794;28;20261;-75
2022/01/24 03:08:07;;;;;;;3.07;2.10;;;6.60;99.90;;;;;;5010471;28;20731;-75
2022/01/24 03:10:40;;;;;;;2.53;2.10;;;6.70;99.90;;;;;;5006868;28;20215;-76
2022/01/24 03:13:19;;;;;;;2.30;2.17;;;6.70;99.90;;;;;;5020655;28;20208;-75
2022/01/24 03:15:48;;;;;;;2.20;2.00;;;6.70;99.90;;;;;;5008927;28;20214;-75
2022/01/24 03:18:16;;;;;;;2.20;2.00;;;6.70;99.90;;;;;;5008025;28;20223;-76
2022/01/24 03:20:44;;;;;;;2.80;2.37;;;6.70;99.90;;;;;;5009045;28;20215;-75
2022/01/24 03:23:14;;;;;;;3.80;2.37;;;6.70;99.90;;;;;;5007550;28;20200;-75
2022/01/24 03:25:42;;;;;;;2.80;2.40;;;6.80;99.90;;;;;;5009387;28;20202;-75
2022/01/24 03:28:12;;;;;;;2.80;2.20;;;6.80;99.90;;;;;;5008788;28;20220;-75
2022/01/24 03:30:40;;;;;;;3.00;2.70;;;6.70;99.90;;;;;;5021601;28;20195;-75
2022/01/24 03:33:10;;;;;;;2.30;2.10;;;6.70;99.90;;;;;;5008511;28;20662;-75
2022/01/24 03:35:40;;;;;;;2.77;2.40;;;6.70;99.90;;;;;;5008714;28;20203;-75
2022/01/24 03:38:08;;;;;;;3.00;2.70;;;6.70;99.90;;;;;;5009550;28;20581;-75
2022/01/24 03:40:35;;;;;;;2.93;2.20;;;6.60;99.90;;;;;;5009553;28;20214;-75
2022/01/24 03:43:03;;;;;;;2.83;2.03;;;6.60;99.90;;;;;;5008845;28;20557;-75
2022/01/24 03:45:44;;;;;;;2.30;2.10;;;6.70;99.90;;;;;;5007674;28;20208;-76
2022/01/24 03:48:25;;;;;;;2.43;2.23;;;6.70;99.90;;;;;;5024597;28;20219;-75
2022/01/24 03:50:53;;;;;;;2.90;2.63;;;6.70;99.90;;;;;;5009374;28;20203;-75
2022/01/24 03:53:21;;;;;;;2.50;2.30;;;6.70;99.90;;;;;;5010478;28;20539;-75
2022/01/24 03:55:48;;;;;;;2.60;2.40;;;6.80;99.90;;;;;;5007302;28;20203;-76
2022/01/24 03:58:16;;;;;;;3.00;2.53;;;6.70;99.90;;;;;;5008756;28;20215;-75
2022/01/24 04:00:44;;;;;;;2.67;2.47;;;6.70;99.90;;;;;;5008471;28;20291;-75
2022/01/24 04:03:14;;;;;;;3.40;2.80;;;6.70;99.90;;;;;;5006116;28;20214;-75
2022/01/24 04:05:41;;;;;;;3.23;2.60;;;6.70;99.90;;;;;;5004197;28;20227;-75
2022/01/24 04:08:09;;;;;;;2.70;2.50;;;6.70;99.90;;;;;;5009261;28;20228;-75
2022/01/24 04:10:42;;;;;;;3.30;2.50;;;6.70;99.90;;;;;;5008625;28;20222;-77
2022/01/24 04:13:24;;;;;;;2.60;2.40;;;6.70;99.90;;;;;;5010711;28;20574;-76
2022/01/24 04:16:24;;;;;;;3.63;2.63;;;6.70;99.90;;;;;;5010406;28;20207;-76
2022/01/24 04:18:58;;;;;;;3.20;2.47;;;6.60;99.90;;;;;;5005480;28;20219;-75
2022/01/24 04:21:28;;;;;;;2.80;2.60;;;6.50;99.90;;;;;;5009159;28;20192;-76
2022/01/24 04:24:02;;;;;;;2.73;2.50;;;6.70;99.90;;;;;;5020279;28;20208;-76
2022/01/24 04:26:30;;;;;;;3.60;3.30;;;6.60;99.90;;;;;;5010280;28;20563;-76
2022/01/24 04:29:31;;;;;;;3.17;2.87;;;6.70;99.90;;;;;;5010340;28;20219;-75
2022/01/24 04:32:00;;;;;;;3.77;2.93;;;6.70;99.90;;;;;;5001211;28;20219;-76
2022/01/24 04:34:28;;;;;;;3.70;3.20;;;6.80;99.90;;;;;;5008066;28;20202;-76
2022/01/24 04:36:55;;;;;;;3.13;2.83;;;6.80;99.90;;;;;;5009927;28;20210;-76
2022/01/24 04:39:23;;;;;;;4.43;2.80;;;6.80;99.90;;;;;;5009482;28;20214;-76
2022/01/24 04:41:54;;;;;;;2.80;2.60;;;6.70;99.90;;;;;;5008233;28;20200;-75
2022/01/24 04:44:45;;;;;;;3.17;2.80;;;6.60;99.90;;;;;;5004859;28;20549;-75
2022/01/24 04:47:21;;;;;;;3.53;3.23;;;6.60;99.90;;;;;;5008156;28;20238;-76
2022/01/24 04:52:41;;;;;;;3.27;2.93;;;6.50;99.90;;;;;;5012795;28;20677;-75
2022/01/24 04:55:09;;;;;;;3.57;3.27;;;6.50;99.90;;;;;;5013321;28;20200;-76
2022/01/24 04:57:37;;;;;;;2.93;2.63;;;6.50;99.90;;;;;;5011700;28;20740;-76
2022/01/24 05:00:08;;;;;;;3.00;2.80;;;6.50;99.90;;;;;;5010161;28;20638;-76
2022/01/24 05:02:37;;;;;;;3.00;2.80;;;6.60;99.90;;;;;;5014086;28;20592;-75
2022/01/24 05:05:06;;;;;;;2.90;2.70;;;6.60;99.90;;;;;;5014339;28;20219;-75
2022/01/24 05:07:33;;;;;;;3.77;2.30;;;6.50;99.90;;;;;;5010899;28;20220;-75
2022/01/24 05:10:07;;;;;;;5.13;2.30;;;6.50;99.90;;;;;;5011720;28;20691;-75
2022/01/24 05:21:22;;;;;;;2.57;2.13;;;6.40;99.90;;;;;;5013711;28;20218;-76
2022/01/24 05:24:05;;;;;;;2.83;2.60;;;6.70;99.90;;;;;;4952653;28;20202;-76
2022/01/24 05:26:33;;;;;;;2.83;2.40;;;6.60;99.90;;;;;;4990880;28;20211;-75
2022/01/24 05:29:00;;;;;;;2.87;2.67;;;6.60;99.90;;;;;;5012480;28;20219;-76
2022/01/24 05:31:27;;;;;;;2.43;2.23;;;6.60;99.90;;;;;;5005343;28;20250;-76
2022/01/24 05:34:22;;;;;;;3.00;2.80;;;6.60;99.90;;;;;;5018824;28;20237;-76
2022/01/24 05:36:49;;;;;;;2.10;1.90;;;6.50;99.90;;;;;;4997765;28;20292;-76
2022/01/24 05:39:17;;;;;;;2.70;2.20;;;6.60;99.90;;;;;;4998774;28;20206;-76
2022/01/24 05:41:44;;;;;;;3.03;2.13;;;6.70;99.90;;;;;;5005432;28;20205;-76
2022/01/24 05:44:12;;;;;;;2.23;2.03;;;6.70;99.90;;;;;;5012792;28;20226;-75
2022/01/24 05:46:39;;;;;;;4.30;2.40;;;6.50;99.90;;;;;;5009374;28;20657;-76
2022/01/24 05:49:08;;;;;;;2.67;1.97;;;6.40;99.90;;;;;;5008313;28;20223;-76
2022/01/24 05:51:37;;;;;;;2.00;1.90;;;6.50;99.90;;;;;;5007464;28;20192;-75
2022/01/24 05:54:07;;;;;;;2.70;2.00;;;6.50;99.90;;;;;;5010248;28;20576;-77
2022/01/24 05:56:34;;;;;;;2.63;2.43;;;6.40;99.90;;;;;;5013136;28;20196;-75
2022/01/24 05:59:02;;;;;;;3.00;2.63;;;6.40;99.90;;;;;;5011743;28;20219;-75
2022/01/24 06:01:29;;;;;;;4.83;3.43;;;6.40;99.90;;;;;;5013394;28;20199;-75
2022/01/24 06:03:57;;;;;;;3.80;3.50;;;6.50;99.90;;;;;;5009864;28;20220;-75
2022/01/24 06:06:27;;;;;;;3.30;3.00;;;6.50;99.90;;;;;;5007035;28;20195;-76
2022/01/24 06:08:55;;;;;;;3.50;3.20;;;6.50;99.90;;;;;;5006650;28;20242;-76
2022/01/24 06:11:24;;;;;;;3.43;3.20;;;6.60;99.90;;;;;;5011591;28;20216;-75
2022/01/24 06:13:52;;;;;;;4.13;3.30;;;6.50;99.90;;;;;;5012392;28;20215;-75
2022/01/24 06:16:20;;;;;;;3.83;3.53;;;6.60;99.90;;;;;;5006748;28;20203;-75
2022/01/24 06:18:47;;;;;;;4.07;3.30;;;6.50;99.90;;;;;;5008410;28;20228;-76
2022/01/24 06:21:14;;;;;;;4.07;3.77;;;6.60;99.90;;;;;;5028450;28;20678;-76
2022/01/24 06:23:42;;;;;;;4.07;3.67;;;6.60;99.90;;;;;;5009349;28;20184;-76
2022/01/24 06:26:11;;;;;;;3.70;3.40;;;6.50;99.90;;;;;;5011100;28;20202;-75
2022/01/24 06:28:38;;;;;;;3.93;3.50;;;6.50;99.90;;;;;;5011695;28;20216;-75
2022/01/24 06:31:05;;;;;;;4.13;3.70;;;6.40;99.90;;;;;;5012573;28;20206;-75
2022/01/24 06:33:33;;;;;;;4.43;3.70;;;6.40;99.90;;;;;;5013528;28;20207;-75
2022/01/24 06:36:01;;;;;;;3.63;3.37;;;6.50;99.90;;;;;;5011980;28;20200;-76
2022/01/24 06:38:28;;;;;;;4.33;3.93;;;6.60;99.90;;;;;;5012200;28;20589;-78
2022/01/24 06:40:56;;;;;;;4.03;3.60;;;6.70;99.90;;;;;;5013539;28;20200;-77
2022/01/24 06:43:25;;;;;;;5.20;3.80;;;6.60;99.90;;;;;;5014726;28;20206;-75
2022/01/24 06:45:52;;;;;;;4.97;4.33;;;6.60;99.90;;;;;;5012077;28;20192;-76
2022/01/24 06:48:19;;;;;;;4.13;3.73;;;6.50;99.90;;;;;;5008026;28;20301;-77
2022/01/24 06:50:53;;;;;;;4.23;3.90;;;6.50;99.90;;;;;;5006956;28;20207;-78
2022/01/24 06:53:34;;;;;;;4.47;4.07;;;6.40;99.90;;;;;;5008430;28;20224;-78
2022/01/24 06:56:05;;;;;;;5.00;4.50;;;6.50;99.90;;;;;;5013623;28;20692;-78
2022/01/24 06:58:34;;;;;;;6.17;5.00;;;6.40;99.90;;;;;;5011173;28;20561;-75
2022/01/24 07:01:02;;;;;;;5.00;4.50;;;6.50;99.90;;;;;;5009666;28;20191;-75
2022/01/24 07:03:29;;;;;;;5.30;4.80;;;6.60;99.90;;;;;;5011592;28;20195;-75
2022/01/24 07:05:56;;;;;;;6.03;4.47;;;6.70;99.90;;;;;;5010724;28;20215;-75
2022/01/24 07:08:24;;;;;;;5.07;4.50;;;6.80;99.90;;;;;;5025312;28;20238;-75
2022/01/24 07:10:51;;;;;;;4.50;4.20;;;6.70;99.90;;;;;;5001298;28;20210;-75
2022/01/24 07:13:20;;;;;;;3.90;3.60;;;6.70;99.90;;;;;;5010975;28;20230;-75
2022/01/24 07:15:53;;;;;;;4.47;4.07;;;6.60;99.90;;;;;;5011116;28;20191;-75
2022/01/24 07:21:19;;;;;;;4.80;4.40;;;6.60;99.90;;;;;;4935418;29;20198;-75
2022/01/24 07:23:47;;;;;;;4.53;4.13;;;6.60;99.90;;;;;;4929568;29;20210;-76
2022/01/24 07:26:14;;;;;;;3.97;3.57;;;6.60;99.90;;;;;;4966038;28;20203;-75
2022/01/24 07:28:41;;;;;;;4.10;3.80;;;6.50;99.90;;;;;;5010721;28;20708;-76
2022/01/24 07:31:10;;;;;;;4.10;3.80;;;6.50;99.90;;;;;;5007657;28;20203;-75
2022/01/24 07:33:40;;;;;;;5.17;4.77;;;6.60;99.90;;;;;;5020812;28;20223;-76
2022/01/24 07:36:08;;;;;;;4.90;4.50;;;6.50;99.90;;;;;;5010856;28;20199;-75
2022/01/24 07:38:35;;;;;;;4.37;4.07;;;6.70;99.90;;;;;;5010398;28;20223;-75
2022/01/24 07:41:27;;;;;;;5.23;4.73;;;6.60;99.90;;;;;;5008246;28;20693;-75
2022/01/24 07:43:56;;;;;;;6.00;5.40;;;6.60;99.90;;;;;;5004447;28;20646;-75
2022/01/24 07:46:25;;;;;;;6.00;5.40;;;6.60;99.90;;;;;;5003112;28;20209;-75
2022/01/24 07:48:52;;;;;;;5.37;4.67;;;6.50;99.90;;;;;;5006226;28;20224;-75
2022/01/24 07:51:20;;;;;;;5.07;4.37;;;6.50;99.90;;;;;;5007735;28;20209;-74
2022/01/24 07:53:47;;;;;;;5.30;4.80;;;6.70;99.90;;;;;;5008345;28;20222;-75
2022/01/24 07:56:18;;;;;;;6.63;5.33;;;6.70;99.90;;;;;;4999370;28;20231;-75
2022/01/24 07:58:45;;;;;;;5.40;4.90;;;6.50;99.90;;;;;;5007155;28;20222;-75
2022/01/24 08:01:14;;;;;;;4.70;4.30;;;6.50;99.90;;;;;;5010944;28;20210;-74
2022/01/24 08:03:43;;;;;;;4.60;4.20;;;6.50;99.90;;;;;;5010421;28;20559;-74
2022/01/24 08:06:11;;;;;;;5.67;5.17;;;6.60;99.90;;;;;;5010569;28;20214;-74
2022/01/24 08:08:38;;;;;;;5.63;4.90;;;6.70;99.90;;;;;;5005074;28;20212;-74
2022/01/24 08:11:06;;;;;;;5.27;4.77;;;6.70;99.90;;;;;;5008847;28;20200;-75
2022/01/24 08:13:33;;;;;;;4.80;4.40;;;6.70;99.90;;;;;;5010430;28;20211;-75
2022/01/24 08:16:01;;;;;;;5.37;4.70;;;6.80;99.90;;;;;;5009115;28;20203;-74
2022/01/24 08:18:28;;;;;;;5.03;4.53;;;6.70;99.90;;;;;;5006970;28;20217;-74
2022/01/24 08:20:57;;;;;;;5.30;4.80;;;6.70;99.90;;;;;;5009949;28;20207;-74
2022/01/24 08:23:27;;;;;;;5.13;4.50;;;6.70;99.90;;;;;;5012296;28;20202;-76
2022/01/24 08:25:55;;;;;;;5.50;4.67;;;6.70;99.90;;;;;;5005927;28;20203;-74
2022/01/24 08:28:23;;;;;;;5.80;5.30;;;6.60;99.90;;;;;;5013213;28;20233;-74
2022/01/24 08:30:52;;;;;;;5.63;5.13;;;6.50;99.90;;;;;;5014926;28;20214;-75
2022/01/24 08:33:19;;;;;;;5.10;4.70;;;6.30;99.90;;;;;;5015007;28;20206;-75
2022/01/24 08:35:46;;;;;;;5.17;4.70;;;6.40;99.90;;;;;;5014487;28;20207;-75
2022/01/24 08:38:34;;;;;;;5.43;4.93;;;6.50;99.90;;;;;;5012758;28;20235;-75
2022/01/24 08:41:07;;;;;;;5.60;5.10;;;6.40;99.90;;;;;;5015903;28;20199;-74
2022/01/24 08:43:50;;;;;;;6.03;5.53;;;6.40;99.90;;;;;;5014803;28;20198;-74
2022/01/24 08:46:19;;;;;;;6.10;5.60;;;6.20;99.90;;;;;;5001202;28;20176;-74
2022/01/24 08:48:47;;;;;;;6.40;5.80;;;6.30;99.90;;;;;;5018786;28;20237;-75
2022/01/24 08:51:14;;;;;;;6.10;5.50;;;6.40;99.90;;;;;;5017487;28;20222;-75
2022/01/24 08:53:43;;;;;;;6.93;6.23;;;6.30;99.90;;;;;;5014863;28;20227;-75
2022/01/24 08:56:11;;;;;;;6.97;6.23;;;6.40;99.90;;;;;;5007559;28;20234;-75
2022/01/24 08:58:39;;;;;;;6.93;6.33;;;6.40;99.90;;;;;;5014223;28;20227;-75
2022/01/24 09:01:07;;;;;;;7.00;6.40;;;6.30;99.90;;;;;;5014478;28;20565;-74
2022/01/24 09:03:39;;;;;;;6.97;6.37;;;6.30;99.90;;;;;;5015275;28;20199;-74
2022/01/24 09:06:07;;;;;;;6.90;6.03;;;6.20;99.90;;;;;;5012364;28;20680;-74
2022/01/24 09:08:35;;;;;;;6.50;5.90;;;6.20;99.90;;;;;;5012210;28;20226;-74
2022/01/24 09:11:05;;;;;;;6.80;5.97;;;6.20;99.90;;;;;;5012228;28;20561;-74
2022/01/24 09:13:33;;;;;;;6.47;5.90;;;6.20;99.90;;;;;;5014506;28;20209;-74
2022/01/24 09:16:10;;;;;;;6.43;5.83;;;6.10;99.90;;;;;;5012729;28;20204;-74
2022/01/24 09:18:38;;;;;;;6.60;6.00;;;6.10;99.90;;;;;;5027735;28;20222;-75
2022/01/24 09:21:05;;;;;;;6.13;5.53;;;6.10;99.90;;;;;;5013457;28;20290;-74
2022/01/24 09:23:33;;;;;;;7.53;5.27;;;6.20;99.90;;;;;;5014329;28;20203;-74
2022/01/24 09:26:24;;;;;;;6.30;5.70;;;6.30;99.90;;;;;;5011333;28;20656;-74
2022/01/24 09:28:51;;;;;;;8.03;6.13;;;6.20;99.90;;;;;;5013625;28;20249;-74
2022/01/24 09:31:20;;;;;;;6.30;5.70;;;6.20;99.90;;;;;;5013815;28;20223;-74
2022/01/24 09:33:47;;;;;;;7.03;5.63;;;6.20;99.90;;;;;;5011257;28;20666;-74
2022/01/24 09:36:15;;;;;;;6.27;5.67;;;6.10;99.90;;;;;;5007811;28;20194;-74
2022/01/24 09:38:43;;;;;;;7.00;6.30;;;5.90;99.90;;;;;;5013635;28;20231;-74
2022/01/24 09:41:13;;;;;;;8.27;6.80;;;5.80;99.90;;;;;;5014513;28;20204;-74
2022/01/24 09:43:43;;;;;;;7.00;6.27;;;6.00;99.90;;;;;;5011232;28;20209;-74
2022/01/24 09:46:11;;;;;;;7.37;6.67;;;5.90;99.90;;;;;;5006720;28;20207;-74
2022/01/24 09:48:39;;;;;;;7.70;6.90;;;6.10;99.90;;;;;;5012341;28;20217;-74
2022/01/24 09:51:07;;;;;;;6.90;6.30;;;5.70;99.90;;;;;;5013245;28;20202;-74
2022/01/24 09:53:37;;;;;;;7.27;6.60;;;5.80;99.90;;;;;;5008064;28;20202;-74
2022/01/24 09:56:05;;;;;;;7.13;6.43;;;6.00;99.90;;;;;;5012677;28;20247;-74
2022/01/24 09:58:34;;;;;;;7.87;7.10;;;6.10;99.90;;;;;;5006072;28;20231;-74
2022/01/24 10:01:05;;;;;;;7.33;6.50;;;5.90;99.90;;;;;;5009225;28;20197;-74
2022/01/24 10:03:33;;;;;;;7.40;6.33;;;5.90;99.90;;;;;;5012991;28;20215;-74
2022/01/24 10:06:00;;;;;;;6.60;6.00;;;5.80;99.90;;;;;;5015593;28;20204;-75
2022/01/24 10:08:29;;;;;;;6.83;6.10;;;5.80;99.90;;;;;;5010192;28;20217;-74
2022/01/24 10:11:27;;;;;;;7.50;6.80;;;6.10;99.90;;;;;;5010216;28;20199;-74
2022/01/24 10:16:45;;;;;;;7.23;6.53;;;6.20;99.90;;;;;;5006868;28;20199;-74
2022/01/24 10:19:14;;;;;;;7.07;6.47;;;6.00;99.90;;;;;;5008321;28;20221;-74
2022/01/24 10:21:44;;;;;;;7.27;6.57;;;6.20;99.90;;;;;;5015818;28;20199;-74
2022/01/24 10:24:13;;;;;;;7.23;6.53;;;6.20;99.90;;;;;;5010674;28;20213;-74
2022/01/24 10:26:40;;;;;;;7.30;6.60;;;6.40;99.90;;;;;;5007275;28;20208;-74
2022/01/24 10:29:14;;;;;;;6.67;6.07;;;6.40;99.90;;;;;;5010388;28;20223;-74
2022/01/24 10:31:48;;;;;;;6.90;6.30;;;6.40;99.90;;;;;;5009078;28;20566;-74
2022/01/24 10:34:23;;;;;;;7.00;6.40;;;6.60;99.90;;;;;;5012181;28;20215;-74
2022/01/24 10:36:51;;;;;;;6.93;6.30;;;6.60;99.90;;;;;;5008910;28;20233;-74
2022/01/24 10:39:28;;;;;;;6.90;5.80;;;6.60;99.90;;;;;;5016458;28;20692;-74
2022/01/24 10:42:33;;;;;;;6.73;6.13;;;6.20;99.90;;;;;;5010719;28;20207;-74
2022/01/24 10:45:10;;;;;;;7.17;6.47;;;6.30;99.90;;;;;;5011015;28;20222;-74
2022/01/24 10:47:44;;;;;;;8.10;7.30;;;6.30;99.90;;;;;;5005331;28;20219;-74
2022/01/24 10:50:19;;;;;;;7.20;6.60;;;6.20;99.90;;;;;;5020099;28;20208;-74
2022/01/24 10:52:46;;;;;;;7.23;6.53;;;6.40;99.90;;;;;;5013207;28;20188;-74
2022/01/24 10:55:16;;;;;;;8.43;7.57;;;6.60;99.90;;;;;;5011478;28;20219;-74
2022/01/24 10:57:44;;;;;;;7.27;6.67;;;6.50;99.90;;;;;;5011302;28;20230;-74
2022/01/24 11:00:14;;;;;;;8.77;7.17;;;6.70;99.90;;;;;;5005752;28;20187;-74
2022/01/24 11:02:45;;;;;;;8.07;7.27;;;6.20;99.90;;;;;;5017157;28;20195;-75
2022/01/24 11:05:18;;;;;;;7.27;6.67;;;6.40;99.90;;;;;;5009946;28;20589;-75
2022/01/24 11:07:53;;;;;;;8.00;7.20;;;6.50;99.90;;;;;;5012487;28;20222;-74
2022/01/24 11:10:22;;;;;;;7.20;6.60;;;6.40;99.90;;;;;;4998779;28;20201;-74
2022/01/24 11:12:50;;;;;;;8.43;7.50;;;6.50;99.90;;;;;;5004713;28;20194;-74
2022/01/24 11:15:17;;;;;;;7.50;6.80;;;6.20;99.90;;;;;;5011085;28;20214;-75
2022/01/24 11:17:52;;;;;;;8.20;6.57;;;6.30;99.90;;;;;;5010892;28;20223;-74
2022/01/24 11:20:21;;;;;;;8.07;7.27;;;6.40;99.90;;;;;;5003647;28;20198;-74
2022/01/24 11:22:58;;;;;;;7.00;6.40;;;6.20;99.90;;;;;;5009119;28;20202;-75
2022/01/24 11:25:26;;;;;;;6.63;5.93;;;6.10;99.90;;;;;;4998304;28;20191;-74
2022/01/24 11:27:54;;;;;;;7.20;6.60;;;6.20;99.90;;;;;;5011013;28;20230;-74
2022/01/24 11:30:27;;;;;;;7.07;6.47;;;6.50;99.90;;;;;;5003889;28;20196;-74
2022/01/24 11:32:59;;;;;;;7.37;6.67;;;6.30;99.90;;;;;;5011379;28;20684;-73
2022/01/24 11:35:32;;;;;;;7.47;6.77;;;6.50;99.90;;;;;;5011315;28;20204;-74
2022/01/24 11:38:32;;;;;;;9.10;6.90;;;6.60;99.90;;;;;;5009468;28;20227;-74
2022/01/24 11:41:02;;;;;;;7.43;6.77;;;6.60;99.90;;;;;;4995306;28;20196;-73
2022/01/24 11:43:34;;;;;;;7.40;6.77;;;6.50;99.90;;;;;;5021980;28;20200;-74
2022/01/24 11:46:06;;;;;;;7.20;6.40;;;6.50;99.90;;;;;;5006099;28;20198;-74
2022/01/24 11:48:36;;;;;;;11.43;8.47;;;6.60;99.90;;;;;;5010027;28;20219;-74
2022/01/24 11:51:39;;;;;;;12.13;8.87;;;7.10;99.90;;;;;;5009832;28;20652;-74
2022/01/24 11:54:30;;;;;;;8.80;6.70;;;7.60;99.90;;;;;;5004110;28;20203;-74
2022/01/24 11:57:18;;;;;;;7.33;5.90;;;8.60;99.90;;;;;;5022534;28;20224;-74
2022/01/24 11:59:47;;;;;;;7.00;6.40;;;8.40;99.90;;;;;;4998977;28;21873;-76
2022/01/24 12:02:19;;;;;;;7.03;6.33;;;7.60;99.90;;;;;;5009913;28;20204;-75
2022/01/24 12:04:53;;;;;;;6.77;6.17;;;7.10;99.90;;;;;;5010861;28;20211;-75
2022/01/24 12:07:23;;;;;;;6.70;6.20;;;6.90;99.90;;;;;;5009575;28;20313;-75
2022/01/24 12:09:52;;;;;;;6.73;6.13;;;7.00;99.90;;;;;;5006626;28;20208;-75
2022/01/24 12:12:41;;;;;;;7.00;5.97;;;6.90;99.90;;;;;;5010538;28;20204;-75
2022/01/24 12:15:10;;;;;;;6.43;5.83;;;7.00;99.90;;;;;;5010735;28;20206;-75
2022/01/24 12:17:50;;;;;;;7.53;6.27;;;6.90;99.90;;;;;;5009862;28;20270;-75
2022/01/24 12:20:47;;;;;;;6.43;5.83;;;7.00;99.90;;;;;;5000599;28;20210;-75
2022/01/24 12:23:37;;;;;;;7.13;6.43;;;6.90;99.90;;;;;;5011021;28;20208;-75
2022/01/24 12:26:07;;;;;;;6.73;6.13;;;6.80;99.90;;;;;;5008570;28;20210;-75
2022/01/24 12:28:47;;;;;;;6.63;6.07;;;6.70;99.90;;;;;;5010463;28;20229;-75
2022/01/24 12:31:21;;;;;;;6.73;6.10;;;6.50;99.90;;;;;;5010918;28;20215;-74
2022/01/24 12:34:02;;;;;;;6.80;6.20;;;6.50;99.90;;;;;;5012588;28;20182;-74
2022/01/24 12:36:52;;;;;;;8.90;6.20;;;6.20;99.90;;;;;;5006067;28;20211;-74
2022/01/24 12:39:24;;;;;;;8.00;7.20;;;6.50;99.90;;;;;;5011470;28;20212;-74
2022/01/24 12:41:57;;;;;;;7.57;6.87;;;6.40;99.90;;;;;;5010346;28;20204;-74
2022/01/24 12:47:16;;;;;;;8.10;7.30;;;6.40;99.90;;;;;;5010453;28;20190;-75
2022/01/24 12:49:46;;;;;;;9.23;8.33;;;6.50;99.90;;;;;;5011916;28;20199;-75
2022/01/24 12:52:18;;;;;;;8.90;8.00;;;6.30;99.90;;;;;;5012659;28;20189;-74
2022/01/24 12:54:49;;;;;;;8.23;7.40;;;6.50;99.90;;;;;;5011409;28;20194;-74
2022/01/24 12:57:18;;;;;;;8.67;7.83;;;6.40;99.90;;;;;;5011637;28;20226;-75
2022/01/24 12:59:55;;;;;;;10.87;8.37;;;6.60;99.90;;;;;;5010857;28;20207;-75
2022/01/24 13:02:27;;;;;;;8.87;8.07;;;6.70;99.90;;;;;;5011054;28;20191;-75
2022/01/24 13:05:01;;;;;;;11.83;9.07;;;6.80;99.90;;;;;;5012105;28;20207;-74
2022/01/24 13:07:32;;;;;;;8.53;7.63;;;6.80;99.90;;;;;;5010135;28;20221;-75
2022/01/24 13:10:09;;;;;;;9.53;8.37;;;6.60;99.90;;;;;;5013971;28;20203;-75
2022/01/24 13:12:36;;;;;;;9.00;8.10;;;6.70;99.90;;;;;;5015114;28;20211;-75
2022/01/24 13:15:08;;;;;;;10.37;8.57;;;6.70;99.90;;;;;;5013857;28;20209;-75
2022/01/24 13:23:10;;;;;;;9.37;8.50;;;6.90;99.90;;;;;;4984744;28;20207;-75
2022/01/24 13:25:39;;;;;;;9.80;8.67;;;6.80;99.90;;;;;;5013811;28;20199;-75
2022/01/24 13:28:09;;;;;;;6.33;5.73;;;6.60;99.90;;;;;;5014080;28;20222;-75
2022/01/24 13:30:39;;;;;;;9.93;8.93;;;7.00;99.90;;;;;;5014615;28;20294;-76
2022/01/24 13:33:09;;;;;;;9.23;8.30;;;6.90;99.90;;;;;;5005654;28;20207;-77
2022/01/24 13:35:39;;;;;;;9.33;8.00;;;6.70;99.90;;;;;;5020106;28;20192;-76
2022/01/24 13:38:10;;;;;;;9.00;8.10;;;6.70;99.90;;;;;;5013093;28;20220;-77
2022/01/24 13:40:41;;;;;;;9.03;8.13;;;6.70;99.90;;;;;;5011665;28;20199;-76
2022/01/24 13:43:11;;;;;;;8.20;7.60;;;6.50;99.90;;;;;;5011896;28;20249;-76
2022/01/24 13:45:40;;;;;;;8.33;7.63;;;6.70;99.90;;;;;;5010444;28;20187;-76
2022/01/24 13:48:18;;;;;;;9.10;8.10;;;6.80;99.90;;;;;;5011316;28;20212;-76
2022/01/24 13:50:52;;;;;;;9.27;8.27;;;6.80;99.90;;;;;;5019197;28;20203;-77
2022/01/24 13:53:35;;;;;;;11.10;8.37;;;6.80;99.90;;;;;;5002251;28;20203;-76
2022/01/24 13:56:18;;;;;;;8.67;7.80;;;6.80;99.90;;;;;;5011026;28;20212;-76
2022/01/24 13:59:21;;;;;;;10.10;9.20;;;6.70;99.90;;;;;;5008562;28;20982;-76
2022/01/24 14:01:56;;;;;;;10.10;8.90;;;6.70;99.90;;;;;;5029666;28;20231;-76
2022/01/24 14:04:29;;;;;;;9.47;8.57;;;6.70;99.90;;;;;;4997731;28;20214;-76
2022/01/24 14:06:58;;;;;;;10.57;9.50;;;6.70;99.90;;;;;;4998735;28;20693;-76
2022/01/24 14:09:35;;;;;;;9.90;9.10;;;6.80;99.90;;;;;;5013321;28;20199;-76
2022/01/24 14:12:04;;;;;;;10.33;9.10;;;6.90;99.90;;;;;;5013034;28;20203;-76
2022/01/24 14:14:40;;;;;;;9.87;8.93;;;6.70;99.90;;;;;;5013520;28;20204;-76
2022/01/24 14:17:21;;;;;;;11.43;10.23;;;6.80;99.90;;;;;;5013311;28;20217;-76
2022/01/24 14:19:56;;;;;;;11.40;9.87;;;6.60;99.90;;;;;;5012835;28;20198;-75
2022/01/24 14:22:25;;;;;;;10.47;9.47;;;6.60;99.90;;;;;;5012929;28;20665;-76
2022/01/24 14:24:58;;;;;;;10.33;9.27;;;6.60;99.90;;;;;;5014068;28;20207;-76
2022/01/24 14:27:46;;;;;;;9.63;8.67;;;6.60;99.90;;;;;;5009501;28;20481;-76
2022/01/24 14:30:20;;;;;;;10.10;9.10;;;6.70;99.90;;;;;;5011833;28;20207;-77
2022/01/24 14:33:02;;;;;;;9.67;8.70;;;6.50;99.90;;;;;;5013265;28;20565;-77
2022/01/24 14:35:32;;;;;;;9.37;8.57;;;6.60;99.90;;;;;;5009663;28;20195;-76